< < Back
Terminal Aerodrome Forecast


Current Version              Previous Versions:   1  2  3  4  5  6  7  8  9  

Terminal Aerodrome Forecast

691
FTUS44 KMRX 211720
TAFCHA
TAF
KCHA 211720Z 2118/2218 02005KT P6SM BKN015
      TEMPO 2118/2120 OVC025
     FM212000 00000KT P6SM BKN025
     FM220400 09003KT P6SM OVC015
     FM221000 12006KT P6SM OVC007
     FM221600 15008KT P6SM OVC010=



Latest METAR

945
SAUS80 KWBC 220900 RRC
MTRCHA
METAR KCHA 220853Z AUTO 00000KT 10SM OVC025 08/04 A3004 RMK AO2 SLP172
T00780044 56012 $


USA.gov is the U.S. government's official web portal to all federal, state and local government web resources and services.